Terminal Aerodrome Forecast
Issued by NWS Louisville, KY

Home | Current Version | Previous Version | Text Only | Print | Product List | Glossary On
Versions: 1 2 3 4 5 6 7 8 9 10 11 12 13 14
862
FTUS43 KLMK 091727
TAFBWG
TAF
KBWG 091727Z 0918/1018 29008KT P6SM VCSH SCT025 BKN035
      TEMPO 0918/0920 5SM -SHSN BR BKN025
     FM092000 29009G16KT 5SM -SHSN OVC025
     FM100500 29008KT P6SM BKN025=

USA.gov is the U.S. government's official web portal to all federal, state and local government web resources and services.